MSR21 HESH-HECA
Flight info
| Callsign | MSR21 |
|---|---|
| Flight time | 0h 41m |
| Altitude | 28000 |
| Route | SHM L677 CVO |
| Aircraft | B738/M-SDE2E3FGHIRWXY/LB1 |
Departure
| Time | 2026-05-05 18:48 |
|---|---|
| Airport | Sharm El Sheikh International Airport (HESH) |
Arrival
| Time | 2026-05-05 19:29 |
|---|---|
| Airport | Cairo International Airport (HECA) |
| Time | Latitude | Longitude | Altitude | Speed | Heading |
|---|---|---|---|---|---|
| 2026-05-05 18:23 | 27.98101 | 34.39020 | 171 ft | 0 kts | 132° |
| 2026-05-05 18:41 | 27.98111 | 34.39008 | 171 ft | 3 kts | 133° |
| 2026-05-05 18:41 | 27.98130 | 34.38992 | 171 ft | 4 kts | 179° |
| 2026-05-05 18:41 | 27.98152 | 34.39002 | 171 ft | 4 kts | 222° |
| 2026-05-05 18:41 | 27.98159 | 34.39010 | 171 ft | 1 kts | 222° |
| 2026-05-05 18:43 | 27.98127 | 34.38976 | 171 ft | 14 kts | 223° |
| 2026-05-05 18:43 | 27.98047 | 34.38892 | 171 ft | 18 kts | 223° |
| 2026-05-05 18:44 | 27.97971 | 34.38863 | 171 ft | 12 kts | 137° |
| 2026-05-05 18:44 | 27.97918 | 34.38947 | 171 ft | 15 kts | 138° |
| 2026-05-05 18:44 | 27.97832 | 34.38979 | 171 ft | 12 kts | 231° |
| 2026-05-05 18:44 | 27.97765 | 34.38902 | 171 ft | 20 kts | 223° |
| 2026-05-05 18:45 | 27.97631 | 34.38766 | 171 ft | 33 kts | 222° |
| 2026-05-05 18:45 | 27.97452 | 34.38578 | 171 ft | 19 kts | 223° |
| 2026-05-05 18:45 | 27.97334 | 34.38457 | 171 ft | 33 kts | 222° |
| 2026-05-05 18:45 | 27.97164 | 34.38277 | 171 ft | 34 kts | 223° |
| 2026-05-05 18:46 | 27.97016 | 34.38130 | 172 ft | 17 kts | 204° |
| 2026-05-05 18:46 | 27.96919 | 34.38208 | 173 ft | 20 kts | 130° |
| 2026-05-05 18:46 | 27.96897 | 34.38310 | 172 ft | 10 kts | 39° |
| 2026-05-05 18:46 | 27.96958 | 34.38367 | 172 ft | 13 kts | 40° |
| 2026-05-05 18:47 | 27.96971 | 34.38380 | 173 ft | 3 kts | 41° |
| 2026-05-05 18:47 | 27.97001 | 34.38409 | 173 ft | 19 kts | 41° |
| 2026-05-05 18:47 | 27.97353 | 34.38766 | 173 ft | 115 kts | 42° |
| 2026-05-05 18:47 | 27.98112 | 34.39578 | 381 ft | 171 kts | 41° |
| 2026-05-05 18:48 | 27.98949 | 34.40537 | 1465 ft | 168 kts | 36° |
| 2026-05-05 18:48 | 27.99980 | 34.41055 | 2580 ft | 171 kts | 1° |
| 2026-05-05 18:48 | 28.01264 | 34.41106 | 3226 ft | 203 kts | 14° |
| 2026-05-05 18:48 | 28.02564 | 34.41989 | 3752 ft | 229 kts | 30° |
| 2026-05-05 18:49 | 28.03953 | 34.42938 | 4583 ft | 238 kts | 26° |
| 2026-05-05 18:49 | 28.05475 | 34.43892 | 5163 ft | 261 kts | 26° |
| 2026-05-05 18:49 | 28.07116 | 34.44863 | 6201 ft | 269 kts | 21° |
| 2026-05-05 18:49 | 28.08961 | 34.45146 | 7375 ft | 275 kts | 349° |
| 2026-05-05 18:50 | 28.10706 | 34.44265 | 8522 ft | 280 kts | 323° |
| 2026-05-05 18:50 | 28.12133 | 34.42741 | 9658 ft | 286 kts | 313° |
| 2026-05-05 18:50 | 28.13483 | 34.41037 | 10670 ft | 298 kts | 310° |
| 2026-05-05 18:50 | 28.14910 | 34.39177 | 11038 ft | 329 kts | 308° |
| 2026-05-05 18:51 | 28.16472 | 34.37134 | 11318 ft | 356 kts | 308° |
| 2026-05-05 18:51 | 28.18118 | 34.35000 | 11894 ft | 360 kts | 308° |
| 2026-05-05 18:51 | 28.19778 | 34.32865 | 11950 ft | 360 kts | 308° |
| 2026-05-05 18:51 | 28.21449 | 34.30735 | 11961 ft | 363 kts | 308° |
| 2026-05-05 18:52 | 28.23128 | 34.28600 | 11975 ft | 362 kts | 308° |
| 2026-05-05 18:52 | 28.24807 | 34.26472 | 11961 ft | 362 kts | 308° |
| 2026-05-05 18:52 | 28.26474 | 34.24339 | 11969 ft | 361 kts | 308° |
| 2026-05-05 18:52 | 28.28148 | 34.22213 | 11997 ft | 363 kts | 308° |
| 2026-05-05 18:53 | 28.29847 | 34.20052 | 12665 ft | 368 kts | 308° |
| 2026-05-05 18:53 | 28.31549 | 34.17887 | 13686 ft | 368 kts | 308° |
| 2026-05-05 18:53 | 28.33257 | 34.15713 | 14507 ft | 372 kts | 308° |
| 2026-05-05 18:53 | 28.34971 | 34.13529 | 15225 ft | 378 kts | 308° |
| 2026-05-05 18:54 | 28.36722 | 34.11293 | 16012 ft | 381 kts | 308° |
| 2026-05-05 18:54 | 28.38482 | 34.09045 | 16852 ft | 382 kts | 308° |
| 2026-05-05 18:54 | 28.40242 | 34.06766 | 17561 ft | 386 kts | 305° |
| 2026-05-05 18:54 | 28.41712 | 34.04224 | 18208 ft | 385 kts | 294° |
| 2026-05-05 18:55 | 28.42847 | 34.01464 | 18964 ft | 386 kts | 292° |
| 2026-05-05 18:55 | 28.43980 | 33.98688 | 19596 ft | 391 kts | 292° |
| 2026-05-05 18:55 | 28.45143 | 33.95871 | 20157 ft | 397 kts | 292° |
| 2026-05-05 18:55 | 28.46327 | 33.93025 | 20791 ft | 400 kts | 292° |
| 2026-05-05 18:56 | 28.47524 | 33.90159 | 21369 ft | 403 kts | 292° |
| 2026-05-05 18:56 | 28.48732 | 33.87273 | 22020 ft | 405 kts | 291° |
| 2026-05-05 18:56 | 28.49945 | 33.84376 | 22610 ft | 408 kts | 292° |
| 2026-05-05 18:56 | 28.51168 | 33.81452 | 23127 ft | 412 kts | 291° |
| 2026-05-05 18:57 | 28.52401 | 33.78499 | 23651 ft | 415 kts | 291° |
| 2026-05-05 18:57 | 28.53642 | 33.75530 | 24223 ft | 415 kts | 291° |
| 2026-05-05 18:57 | 28.54885 | 33.72557 | 24718 ft | 418 kts | 291° |
| 2026-05-05 18:57 | 28.56133 | 33.69562 | 25142 ft | 421 kts | 291° |
| 2026-05-05 18:58 | 28.57391 | 33.66544 | 25603 ft | 423 kts | 291° |
| 2026-05-05 18:58 | 28.58650 | 33.63517 | 26068 ft | 425 kts | 292° |
| 2026-05-05 18:58 | 28.59917 | 33.60477 | 26570 ft | 425 kts | 291° |
| 2026-05-05 18:58 | 28.61180 | 33.57447 | 27239 ft | 421 kts | 291° |
| 2026-05-05 18:59 | 28.62451 | 33.54463 | 27833 ft | 419 kts | 294° |
| 2026-05-05 18:59 | 28.63985 | 33.51634 | 27945 ft | 421 kts | 302° |
| 2026-05-05 18:59 | 28.65824 | 33.49044 | 27973 ft | 420 kts | 304° |
| 2026-05-05 18:59 | 28.67682 | 33.46467 | 27974 ft | 421 kts | 304° |
| 2026-05-05 19:00 | 28.69539 | 33.43885 | 27982 ft | 421 kts | 304° |
| 2026-05-05 19:00 | 28.71389 | 33.41303 | 27978 ft | 421 kts | 304° |
| 2026-05-05 19:00 | 28.73238 | 33.38711 | 27981 ft | 421 kts | 304° |
| 2026-05-05 19:00 | 28.75079 | 33.36120 | 27981 ft | 421 kts | 304° |
| 2026-05-05 19:01 | 28.76918 | 33.33524 | 27983 ft | 421 kts | 304° |
| 2026-05-05 19:01 | 28.78757 | 33.30925 | 27987 ft | 421 kts | 304° |
| 2026-05-05 19:01 | 28.80565 | 33.28365 | 27995 ft | 420 kts | 304° |
| 2026-05-05 19:01 | 28.82399 | 33.25766 | 27994 ft | 420 kts | 303° |
| 2026-05-05 19:02 | 28.84257 | 33.23133 | 28000 ft | 420 kts | 304° |
| 2026-05-05 19:02 | 28.86085 | 33.20541 | 27995 ft | 419 kts | 303° |
| 2026-05-05 19:02 | 28.89739 | 33.15360 | 27997 ft | 419 kts | 303° |
| 2026-05-05 19:03 | 28.91540 | 33.12802 | 28000 ft | 419 kts | 303° |
| 2026-05-05 19:03 | 28.93386 | 33.10177 | 28010 ft | 418 kts | 303° |
| 2026-05-05 19:03 | 28.97001 | 33.05025 | 27999 ft | 418 kts | 303° |
| 2026-05-05 19:04 | 29.00638 | 32.99845 | 28011 ft | 418 kts | 303° |
| 2026-05-05 19:04 | 29.04271 | 32.94658 | 28018 ft | 418 kts | 303° |
| 2026-05-05 19:05 | 29.08050 | 32.89598 | 28012 ft | 420 kts | 307° |
| 2026-05-05 19:05 | 29.11530 | 32.84305 | 28028 ft | 416 kts | 301° |
| 2026-05-05 19:06 | 29.14490 | 32.79896 | 28030 ft | 418 kts | 303° |
| 2026-05-05 19:06 | 29.18088 | 32.74831 | 27918 ft | 403 kts | 304° |
| 2026-05-05 19:07 | 29.19824 | 32.72379 | 27551 ft | 389 kts | 303° |
| 2026-05-05 19:07 | 29.21497 | 32.69995 | 27097 ft | 379 kts | 303° |
| 2026-05-05 19:07 | 29.23126 | 32.67657 | 26636 ft | 371 kts | 303° |
| 2026-05-05 19:07 | 29.24715 | 32.65369 | 26182 ft | 364 kts | 303° |
| 2026-05-05 19:08 | 29.26278 | 32.63119 | 25721 ft | 358 kts | 303° |
| 2026-05-05 19:08 | 29.27816 | 32.60905 | 25261 ft | 353 kts | 303° |
| 2026-05-05 19:08 | 29.29346 | 32.58685 | 24825 ft | 360 kts | 303° |
| 2026-05-05 19:08 | 29.30929 | 32.56373 | 24362 ft | 374 kts | 303° |
| 2026-05-05 19:09 | 29.32533 | 32.54032 | 23870 ft | 370 kts | 303° |
| 2026-05-05 19:09 | 29.34109 | 32.51740 | 23393 ft | 362 kts | 303° |
| 2026-05-05 19:09 | 29.35646 | 32.49504 | 22906 ft | 353 kts | 303° |
| 2026-05-05 19:09 | 29.37149 | 32.47317 | 22475 ft | 346 kts | 303° |
| 2026-05-05 19:10 | 29.38630 | 32.45156 | 22019 ft | 342 kts | 303° |
| 2026-05-05 19:10 | 29.40090 | 32.43025 | 21587 ft | 338 kts | 303° |
| 2026-05-05 19:10 | 29.41551 | 32.40885 | 21145 ft | 346 kts | 303° |
| 2026-05-05 19:10 | 29.43061 | 32.38666 | 20703 ft | 357 kts | 303° |
| 2026-05-05 19:11 | 29.44586 | 32.36432 | 20229 ft | 353 kts | 303° |
| 2026-05-05 19:11 | 29.46085 | 32.34243 | 19770 ft | 345 kts | 304° |
| 2026-05-05 19:11 | 29.47552 | 32.32099 | 19313 ft | 338 kts | 304° |
| 2026-05-05 19:11 | 29.48987 | 32.29996 | 18882 ft | 332 kts | 304° |
| 2026-05-05 19:12 | 29.50401 | 32.27926 | 18449 ft | 328 kts | 304° |
| 2026-05-05 19:12 | 29.51803 | 32.25869 | 18024 ft | 325 kts | 304° |
| 2026-05-05 19:12 | 29.53197 | 32.23821 | 17607 ft | 327 kts | 304° |
| 2026-05-05 19:12 | 29.54603 | 32.21758 | 17183 ft | 338 kts | 304° |
| 2026-05-05 19:13 | 29.56064 | 32.19608 | 16735 ft | 342 kts | 304° |
| 2026-05-05 19:13 | 29.57517 | 32.17473 | 16278 ft | 335 kts | 304° |
| 2026-05-05 19:13 | 29.58936 | 32.15388 | 15838 ft | 328 kts | 304° |
| 2026-05-05 19:13 | 29.60327 | 32.13341 | 15410 ft | 321 kts | 305° |
| 2026-05-05 19:14 | 29.61691 | 32.11335 | 14996 ft | 317 kts | 305° |
| 2026-05-05 19:14 | 29.63046 | 32.09339 | 14580 ft | 317 kts | 305° |
| 2026-05-05 19:14 | 29.64400 | 32.07341 | 14166 ft | 319 kts | 305° |
| 2026-05-05 19:14 | 29.65794 | 32.05281 | 13747 ft | 332 kts | 305° |
| 2026-05-05 19:15 | 29.67216 | 32.03180 | 13299 ft | 333 kts | 305° |
| 2026-05-05 19:15 | 29.68625 | 32.01104 | 12861 ft | 326 kts | 306° |
| 2026-05-05 19:15 | 29.70006 | 31.99068 | 12431 ft | 319 kts | 306° |
| 2026-05-05 19:15 | 29.71356 | 31.97076 | 12015 ft | 314 kts | 306° |
| 2026-05-05 19:16 | 29.72690 | 31.95104 | 11603 ft | 311 kts | 306° |
| 2026-05-05 19:16 | 29.74022 | 31.93133 | 11204 ft | 313 kts | 306° |
| 2026-05-05 19:16 | 29.75363 | 31.91149 | 10888 ft | 317 kts | 306° |
| 2026-05-05 19:16 | 29.76722 | 31.89138 | 10741 ft | 316 kts | 306° |
| 2026-05-05 19:17 | 29.78045 | 31.87181 | 10590 ft | 303 kts | 306° |
| 2026-05-05 19:17 | 29.79293 | 31.85295 | 10442 ft | 290 kts | 305° |
| 2026-05-05 19:17 | 29.80472 | 31.83467 | 10299 ft | 278 kts | 304° |
| 2026-05-05 19:17 | 29.81597 | 31.81713 | 10177 ft | 267 kts | 305° |
| 2026-05-05 19:18 | 29.82683 | 31.80021 | 10057 ft | 258 kts | 305° |
| 2026-05-05 19:18 | 29.83743 | 31.78372 | 9808 ft | 254 kts | 305° |
| 2026-05-05 19:18 | 29.84783 | 31.76748 | 9546 ft | 250 kts | 305° |
| 2026-05-05 19:18 | 29.85814 | 31.75146 | 9290 ft | 247 kts | 305° |
| 2026-05-05 19:19 | 29.86830 | 31.73562 | 9040 ft | 246 kts | 305° |
| 2026-05-05 19:19 | 29.87856 | 31.71968 | 8786 ft | 251 kts | 305° |
| 2026-05-05 19:19 | 29.88909 | 31.70332 | 8527 ft | 258 kts | 305° |
| 2026-05-05 19:19 | 29.89979 | 31.68668 | 8252 ft | 257 kts | 306° |
| 2026-05-05 19:20 | 29.91034 | 31.67021 | 7981 ft | 254 kts | 304° |
| 2026-05-05 19:20 | 29.91715 | 31.65177 | 7741 ft | 249 kts | 283° |
| 2026-05-05 19:20 | 29.92049 | 31.63238 | 7480 ft | 245 kts | 282° |
| 2026-05-05 19:20 | 29.92372 | 31.61323 | 7230 ft | 242 kts | 282° |
| 2026-05-05 19:21 | 29.92692 | 31.59423 | 6973 ft | 240 kts | 282° |
| 2026-05-05 19:21 | 29.93003 | 31.57570 | 6720 ft | 238 kts | 282° |
| 2026-05-05 19:21 | 29.93318 | 31.55709 | 6465 ft | 236 kts | 283° |
| 2026-05-05 19:21 | 29.93639 | 31.53825 | 6238 ft | 239 kts | 283° |
| 2026-05-05 19:22 | 29.93966 | 31.51902 | 5983 ft | 249 kts | 283° |
| 2026-05-05 19:22 | 29.94299 | 31.49938 | 5713 ft | 248 kts | 283° |
| 2026-05-05 19:22 | 29.94629 | 31.47992 | 5443 ft | 246 kts | 283° |
| 2026-05-05 19:22 | 29.94955 | 31.46070 | 5186 ft | 243 kts | 283° |
| 2026-05-05 19:23 | 29.95276 | 31.44176 | 5032 ft | 236 kts | 283° |
| 2026-05-05 19:23 | 29.95587 | 31.42348 | 4929 ft | 228 kts | 283° |
| 2026-05-05 19:23 | 29.95882 | 31.40608 | 4829 ft | 220 kts | 284° |
| 2026-05-05 19:23 | 29.96177 | 31.38869 | 4728 ft | 223 kts | 284° |
| 2026-05-05 19:24 | 29.96472 | 31.37127 | 4574 ft | 217 kts | 284° |
| 2026-05-05 19:24 | 29.96755 | 31.35449 | 4333 ft | 209 kts | 284° |
| 2026-05-05 19:24 | 29.97027 | 31.33839 | 4104 ft | 200 kts | 284° |
| 2026-05-05 19:24 | 29.97287 | 31.32291 | 3894 ft | 195 kts | 284° |
| 2026-05-05 19:25 | 29.97561 | 31.30807 | 3677 ft | 182 kts | 292° |
| 2026-05-05 19:25 | 29.98335 | 31.29785 | 3455 ft | 169 kts | 340° |
| 2026-05-05 19:25 | 29.99471 | 31.29884 | 3313 ft | 169 kts | 24° |
| 2026-05-05 19:25 | 30.00482 | 31.30497 | 3096 ft | 158 kts | 22° |
| 2026-05-05 19:26 | 30.01393 | 31.31145 | 2900 ft | 151 kts | 37° |
| 2026-05-05 19:26 | 30.02175 | 31.31968 | 2751 ft | 151 kts | 38° |
| 2026-05-05 19:26 | 30.02937 | 31.32880 | 2520 ft | 165 kts | 44° |
| 2026-05-05 19:26 | 30.03709 | 31.33896 | 2290 ft | 170 kts | 48° |
| 2026-05-05 19:27 | 30.04481 | 31.34928 | 2064 ft | 168 kts | 51° |
| 2026-05-05 19:27 | 30.05233 | 31.35921 | 1881 ft | 160 kts | 53° |
| 2026-05-05 19:27 | 30.05945 | 31.36863 | 1692 ft | 151 kts | 46° |
| 2026-05-05 19:27 | 30.06606 | 31.37772 | 1576 ft | 145 kts | 48° |
| 2026-05-05 19:28 | 30.07233 | 31.38657 | 1352 ft | 138 kts | 44° |
| 2026-05-05 19:28 | 30.07870 | 31.39451 | 1109 ft | 136 kts | 44° |
| 2026-05-05 19:28 | 30.08511 | 31.40296 | 887 ft | 142 kts | 46° |
| 2026-05-05 19:28 | 30.09148 | 31.41145 | 692 ft | 139 kts | 46° |
| 2026-05-05 19:29 | 30.09777 | 31.41990 | 514 ft | 140 kts | 47° |
| 2026-05-05 19:29 | 30.10389 | 31.42797 | 449 ft | 123 kts | 46° |
| 2026-05-05 19:29 | 30.10879 | 31.43430 | 448 ft | 89 kts | 50° |
| 2026-05-05 19:29 | 30.11200 | 31.43851 | 448 ft | 47 kts | 47° |
| 2026-05-05 19:30 | 30.11392 | 31.44014 | 448 ft | 32 kts | 25° |
| 2026-05-05 19:30 | 30.11525 | 31.44078 | 448 ft | 13 kts | 23° |
| 2026-05-05 19:30 | 30.11582 | 31.44100 | 448 ft | 8 kts | 2° |
| 2026-05-05 19:30 | 30.11649 | 31.44043 | 449 ft | 14 kts | 265° |
| 2026-05-05 19:31 | 30.11585 | 31.43941 | 449 ft | 18 kts | 229° |
| 2026-05-05 19:31 | 30.11490 | 31.43814 | 449 ft | 25 kts | 229° |
| 2026-05-05 19:31 | 30.11369 | 31.43652 | 449 ft | 29 kts | 229° |
| 2026-05-05 19:31 | 30.11242 | 31.43485 | 449 ft | 18 kts | 234° |
| 2026-05-05 19:32 | 30.11294 | 31.43370 | 449 ft | 19 kts | 319° |
| 2026-05-05 19:32 | 30.11400 | 31.43263 | 449 ft | 22 kts | 319° |
| 2026-05-05 19:32 | 30.11535 | 31.43131 | 437 ft | 30 kts | 319° |
| 2026-05-05 19:32 | 30.11694 | 31.42972 | 420 ft | 27 kts | 318° |
| 2026-05-05 19:33 | 30.11835 | 31.42830 | 405 ft | 21 kts | 319° |
| 2026-05-05 19:33 | 30.11971 | 31.42694 | 391 ft | 30 kts | 319° |
| 2026-05-05 19:33 | 30.12138 | 31.42529 | 387 ft | 30 kts | 319° |
| 2026-05-05 19:33 | 30.12186 | 31.42381 | 388 ft | 22 kts | 231° |
| 2026-05-05 19:34 | 30.12077 | 31.42238 | 388 ft | 25 kts | 229° |
| 2026-05-05 19:34 | 30.11955 | 31.42076 | 388 ft | 28 kts | 229° |
| 2026-05-05 19:34 | 30.11821 | 31.41899 | 388 ft | 28 kts | 229° |
| 2026-05-05 19:35 | 30.11543 | 31.41532 | 388 ft | 33 kts | 229° |
| 2026-05-05 19:35 | 30.11386 | 31.41324 | 388 ft | 35 kts | 229° |
| 2026-05-05 19:35 | 30.11220 | 31.41103 | 388 ft | 38 kts | 229° |
| 2026-05-05 19:35 | 30.11047 | 31.40873 | 388 ft | 35 kts | 229° |
| 2026-05-05 19:36 | 30.10914 | 31.40697 | 387 ft | 26 kts | 229° |
| 2026-05-05 19:36 | 30.10789 | 31.40528 | 387 ft | 29 kts | 229° |
| 2026-05-05 19:36 | 30.10670 | 31.40364 | 385 ft | 16 kts | 243° |
| 2026-05-05 19:36 | 30.10692 | 31.40245 | 387 ft | 17 kts | 245° |
| 2026-05-05 19:37 | 30.10600 | 31.40120 | 382 ft | 23 kts | 229° |
| 2026-05-05 19:37 | 30.10493 | 31.39974 | 378 ft | 18 kts | 236° |
| 2026-05-05 19:37 | 30.10536 | 31.39846 | 374 ft | 23 kts | 342° |
| 2026-05-05 19:37 | 30.10711 | 31.39794 | 369 ft | 28 kts | 346° |
| 2026-05-05 19:38 | 30.10872 | 31.39748 | 369 ft | 13 kts | 356° |
| 2026-05-05 19:38 | 30.10909 | 31.39813 | 369 ft | 8 kts | 77° |
| 2026-05-05 19:38 | 30.10912 | 31.39831 | 369 ft | 0 kts | 76° |